sensor_id;sensor_type;location;lat;lon;timestamp;P1;durP1;ratioP1;P2;durP2;ratioP2
54177;SDS011;40085;53.004;6.770;2023-06-22T00:01:50;13.35;;;9.18;;
54177;SDS011;40085;53.004;6.770;2023-06-22T00:04:16;13.70;;;9.70;;
54177;SDS011;40085;53.004;6.770;2023-06-22T00:06:42;13.95;;;10.07;;
54177;SDS011;40085;53.004;6.770;2023-06-22T00:09:08;15.32;;;10.10;;
54177;SDS011;40085;53.004;6.770;2023-06-22T00:11:35;16.77;;;9.95;;
54177;SDS011;40085;53.004;6.770;2023-06-22T00:14:01;16.83;;;11.13;;
54177;SDS011;40085;53.004;6.770;2023-06-22T00:16:27;14.35;;;10.32;;
54177;SDS011;40085;53.004;6.770;2023-06-22T00:18:53;19.75;;;11.20;;
54177;SDS011;40085;53.004;6.770;2023-06-22T00:21:19;15.32;;;11.10;;
54177;SDS011;40085;53.004;6.770;2023-06-22T00:23:46;17.10;;;11.73;;
54177;SDS011;40085;53.004;6.770;2023-06-22T00:26:12;18.90;;;11.93;;
54177;SDS011;40085;53.004;6.770;2023-06-22T00:28:38;15.52;;;11.38;;
54177;SDS011;40085;53.004;6.770;2023-06-22T00:31:04;14.55;;;10.27;;
54177;SDS011;40085;53.004;6.770;2023-06-22T00:33:31;19.70;;;10.57;;
54177;SDS011;40085;53.004;6.770;2023-06-22T00:35:57;13.02;;;9.50;;
54177;SDS011;40085;53.004;6.770;2023-06-22T00:38:22;16.10;;;9.98;;
54177;SDS011;40085;53.004;6.770;2023-06-22T00:40:48;22.40;;;11.55;;
54177;SDS011;40085;53.004;6.770;2023-06-22T00:43:14;20.25;;;11.38;;
54177;SDS011;40085;53.004;6.770;2023-06-22T00:45:40;19.02;;;10.80;;
54177;SDS011;40085;53.004;6.770;2023-06-22T00:48:06;16.83;;;9.43;;
54177;SDS011;40085;53.004;6.770;2023-06-22T00:50:33;16.13;;;10.50;;
54177;SDS011;40085;53.004;6.770;2023-06-22T00:53:04;16.20;;;11.35;;
54177;SDS011;40085;53.004;6.770;2023-06-22T00:55:37;14.32;;;11.20;;
54177;SDS011;40085;53.004;6.770;2023-06-22T00:58:04;16.55;;;9.60;;
54177;SDS011;40085;53.004;6.770;2023-06-22T01:00:33;19.08;;;10.63;;
54177;SDS011;40085;53.004;6.770;2023-06-22T01:02:58;15.38;;;10.38;;
54177;SDS011;40085;53.004;6.770;2023-06-22T01:05:24;14.20;;;9.13;;
54177;SDS011;40085;53.004;6.770;2023-06-22T01:08:12;14.68;;;9.52;;
54177;SDS011;40085;53.004;6.770;2023-06-22T01:10:50;19.17;;;9.63;;
54177;SDS011;40085;53.004;6.770;2023-06-22T01:13:25;15.05;;;9.10;;
54177;SDS011;40085;53.004;6.770;2023-06-22T01:16:16;18.17;;;10.40;;
54177;SDS011;40085;53.004;6.770;2023-06-22T01:19:11;14.10;;;9.80;;
54177;SDS011;40085;53.004;6.770;2023-06-22T01:21:49;18.05;;;10.90;;
54177;SDS011;40085;53.004;6.770;2023-06-22T01:24:30;19.67;;;11.10;;
54177;SDS011;40085;53.004;6.770;2023-06-22T01:27:14;16.35;;;10.18;;
54177;SDS011;40085;53.004;6.770;2023-06-22T01:30:06;13.80;;;9.85;;
54177;SDS011;40085;53.004;6.770;2023-06-22T01:32:36;16.27;;;9.80;;
54177;SDS011;40085;53.004;6.770;2023-06-22T01:35:04;15.35;;;11.18;;
54177;SDS011;40085;53.004;6.770;2023-06-22T01:37:33;16.77;;;10.52;;
54177;SDS011;40085;53.004;6.770;2023-06-22T01:40:00;14.82;;;9.85;;
54177;SDS011;40085;53.004;6.770;2023-06-22T01:42:27;15.18;;;11.30;;
54177;SDS011;40085;53.004;6.770;2023-06-22T01:44:54;16.92;;;10.30;;
54177;SDS011;40085;53.004;6.770;2023-06-22T01:47:21;20.02;;;11.43;;
54177;SDS011;40085;53.004;6.770;2023-06-22T01:49:48;16.90;;;11.40;;
54177;SDS011;40085;53.004;6.770;2023-06-22T01:52:16;18.15;;;11.50;;
54177;SDS011;40085;53.004;6.770;2023-06-22T01:54:42;15.80;;;11.85;;
54177;SDS011;40085;53.004;6.770;2023-06-22T01:57:08;17.40;;;11.43;;
54177;SDS011;40085;53.004;6.770;2023-06-22T01:59:37;17.10;;;11.77;;
54177;SDS011;40085;53.004;6.770;2023-06-22T02:02:14;16.05;;;10.60;;
54177;SDS011;40085;53.004;6.770;2023-06-22T02:04:43;14.65;;;10.93;;
54177;SDS011;40085;53.004;6.770;2023-06-22T02:07:17;15.82;;;10.57;;
54177;SDS011;40085;53.004;6.770;2023-06-22T02:09:46;15.10;;;11.35;;
54177;SDS011;40085;53.004;6.770;2023-06-22T02:12:14;14.40;;;10.52;;
54177;SDS011;40085;53.004;6.770;2023-06-22T02:14:42;15.05;;;11.38;;
54177;SDS011;40085;53.004;6.770;2023-06-22T02:17:09;18.30;;;12.13;;
54177;SDS011;40085;53.004;6.770;2023-06-22T02:19:39;16.38;;;11.55;;
54177;SDS011;40085;53.004;6.770;2023-06-22T02:22:07;18.33;;;11.80;;
54177;SDS011;40085;53.004;6.770;2023-06-22T02:24:33;16.35;;;11.52;;
54177;SDS011;40085;53.004;6.770;2023-06-22T02:26:59;20.17;;;12.38;;
54177;SDS011;40085;53.004;6.770;2023-06-22T02:29:25;15.90;;;11.98;;
54177;SDS011;40085;53.004;6.770;2023-06-22T02:31:54;13.35;;;10.48;;
54177;SDS011;40085;53.004;6.770;2023-06-22T02:34:21;15.23;;;11.30;;
54177;SDS011;40085;53.004;6.770;2023-06-22T02:36:48;16.52;;;11.07;;
54177;SDS011;40085;53.004;6.770;2023-06-22T02:39:26;15.77;;;12.30;;
54177;SDS011;40085;53.004;6.770;2023-06-22T02:41:52;17.33;;;10.98;;
54177;SDS011;40085;53.004;6.770;2023-06-22T02:44:19;14.98;;;11.75;;
54177;SDS011;40085;53.004;6.770;2023-06-22T02:46:45;15.80;;;11.68;;
54177;SDS011;40085;53.004;6.770;2023-06-22T02:49:11;18.45;;;12.50;;
54177;SDS011;40085;53.004;6.770;2023-06-22T02:51:42;16.63;;;11.73;;
54177;SDS011;40085;53.004;6.770;2023-06-22T02:56:34;16.23;;;10.30;;
54177;SDS011;40085;53.004;6.770;2023-06-22T02:59:01;17.60;;;11.23;;
54177;SDS011;40085;53.004;6.770;2023-06-22T03:01:28;17.13;;;11.43;;
54177;SDS011;40085;53.004;6.770;2023-06-22T03:03:55;17.27;;;12.20;;
54177;SDS011;40085;53.004;6.770;2023-06-22T03:06:21;16.60;;;11.48;;
54177;SDS011;40085;53.004;6.770;2023-06-22T03:08:48;17.88;;;11.40;;
54177;SDS011;40085;53.004;6.770;2023-06-22T03:11:14;17.42;;;12.27;;
54177;SDS011;40085;53.004;6.770;2023-06-22T03:13:40;17.77;;;12.38;;
54177;SDS011;40085;53.004;6.770;2023-06-22T03:16:06;16.90;;;11.63;;
54177;SDS011;40085;53.004;6.770;2023-06-22T03:18:32;16.60;;;12.02;;
54177;SDS011;40085;53.004;6.770;2023-06-22T03:20:58;16.55;;;11.25;;
54177;SDS011;40085;53.004;6.770;2023-06-22T03:23:25;17.13;;;11.88;;
54177;SDS011;40085;53.004;6.770;2023-06-22T03:25:51;15.18;;;11.48;;
54177;SDS011;40085;53.004;6.770;2023-06-22T03:28:17;18.10;;;10.70;;
54177;SDS011;40085;53.004;6.770;2023-06-22T03:30:43;16.17;;;10.80;;
54177;SDS011;40085;53.004;6.770;2023-06-22T03:33:09;14.90;;;10.05;;
54177;SDS011;40085;53.004;6.770;2023-06-22T03:35:35;16.40;;;11.15;;
54177;SDS011;40085;53.004;6.770;2023-06-22T03:38:01;12.52;;;9.65;;
54177;SDS011;40085;53.004;6.770;2023-06-22T03:40:27;14.60;;;10.30;;
54177;SDS011;40085;53.004;6.770;2023-06-22T03:42:53;12.93;;;9.88;;
54177;SDS011;40085;53.004;6.770;2023-06-22T03:45:19;16.35;;;10.15;;
54177;SDS011;40085;53.004;6.770;2023-06-22T03:47:45;12.45;;;9.73;;
54177;SDS011;40085;53.004;6.770;2023-06-22T03:50:11;18.58;;;10.43;;
54177;SDS011;40085;53.004;6.770;2023-06-22T03:52:37;13.75;;;10.07;;
54177;SDS011;40085;53.004;6.770;2023-06-22T03:55:03;20.52;;;10.93;;
54177;SDS011;40085;53.004;6.770;2023-06-22T03:57:29;14.82;;;9.30;;
54177;SDS011;40085;53.004;6.770;2023-06-22T03:59:56;16.50;;;9.65;;
54177;SDS011;40085;53.004;6.770;2023-06-22T04:02:23;13.40;;;9.82;;
54177;SDS011;40085;53.004;6.770;2023-06-22T04:04:49;12.02;;;8.82;;
54177;SDS011;40085;53.004;6.770;2023-06-22T04:07:14;15.63;;;10.82;;
54177;SDS011;40085;53.004;6.770;2023-06-22T04:09:41;14.35;;;9.30;;
54177;SDS011;40085;53.004;6.770;2023-06-22T04:12:07;17.10;;;10.35;;
54177;SDS011;40085;53.004;6.770;2023-06-22T04:14:33;13.52;;;8.93;;
54177;SDS011;40085;53.004;6.770;2023-06-22T04:16:59;14.70;;;9.95;;
54177;SDS011;40085;53.004;6.770;2023-06-22T04:19:25;14.65;;;10.18;;
54177;SDS011;40085;53.004;6.770;2023-06-22T04:21:51;16.80;;;10.40;;
54177;SDS011;40085;53.004;6.770;2023-06-22T04:24:17;12.95;;;8.98;;
54177;SDS011;40085;53.004;6.770;2023-06-22T04:26:43;14.32;;;9.90;;
54177;SDS011;40085;53.004;6.770;2023-06-22T04:29:10;15.73;;;10.13;;
54177;SDS011;40085;53.004;6.770;2023-06-22T04:31:36;14.52;;;10.18;;
54177;SDS011;40085;53.004;6.770;2023-06-22T04:34:06;13.57;;;10.15;;
54177;SDS011;40085;53.004;6.770;2023-06-22T04:36:36;13.90;;;10.02;;
54177;SDS011;40085;53.004;6.770;2023-06-22T04:39:03;13.50;;;9.27;;
54177;SDS011;40085;53.004;6.770;2023-06-22T04:41:29;14.40;;;10.95;;
54177;SDS011;40085;53.004;6.770;2023-06-22T04:44:07;21.95;;;10.63;;
54177;SDS011;40085;53.004;6.770;2023-06-22T04:46:33;14.63;;;10.40;;
54177;SDS011;40085;53.004;6.770;2023-06-22T04:49:03;14.98;;;10.68;;
54177;SDS011;40085;53.004;6.770;2023-06-22T04:51:31;17.05;;;9.95;;
54177;SDS011;40085;53.004;6.770;2023-06-22T04:53:57;20.33;;;10.18;;
54177;SDS011;40085;53.004;6.770;2023-06-22T04:56:25;14.30;;;10.45;;
54177;SDS011;40085;53.004;6.770;2023-06-22T04:58:53;16.48;;;10.82;;
54177;SDS011;40085;53.004;6.770;2023-06-22T05:01:22;18.77;;;11.50;;
54177;SDS011;40085;53.004;6.770;2023-06-22T05:03:48;18.17;;;12.15;;
54177;SDS011;40085;53.004;6.770;2023-06-22T05:06:14;17.75;;;11.75;;
54177;SDS011;40085;53.004;6.770;2023-06-22T05:08:40;17.48;;;10.90;;
54177;SDS011;40085;53.004;6.770;2023-06-22T05:11:06;17.73;;;12.00;;
54177;SDS011;40085;53.004;6.770;2023-06-22T05:13:32;17.52;;;12.23;;
54177;SDS011;40085;53.004;6.770;2023-06-22T05:15:58;20.33;;;11.80;;
54177;SDS011;40085;53.004;6.770;2023-06-22T05:18:30;20.75;;;12.02;;
54177;SDS011;40085;53.004;6.770;2023-06-22T05:20:57;17.52;;;12.18;;
54177;SDS011;40085;53.004;6.770;2023-06-22T05:23:23;15.98;;;10.70;;
54177;SDS011;40085;53.004;6.770;2023-06-22T05:25:49;18.00;;;11.77;;
54177;SDS011;40085;53.004;6.770;2023-06-22T05:28:16;17.88;;;12.27;;
54177;SDS011;40085;53.004;6.770;2023-06-22T05:30:42;20.48;;;11.18;;
54177;SDS011;40085;53.004;6.770;2023-06-22T05:33:08;14.73;;;10.95;;
54177;SDS011;40085;53.004;6.770;2023-06-22T05:35:34;14.23;;;10.43;;
54177;SDS011;40085;53.004;6.770;2023-06-22T05:38:00;19.38;;;12.55;;
54177;SDS011;40085;53.004;6.770;2023-06-22T05:40:26;21.73;;;11.90;;
54177;SDS011;40085;53.004;6.770;2023-06-22T05:42:52;19.50;;;12.95;;
54177;SDS011;40085;53.004;6.770;2023-06-22T05:45:18;21.48;;;12.23;;
54177;SDS011;40085;53.004;6.770;2023-06-22T05:47:43;16.55;;;11.95;;
54177;SDS011;40085;53.004;6.770;2023-06-22T05:50:09;21.38;;;12.48;;
54177;SDS011;40085;53.004;6.770;2023-06-22T05:52:34;25.23;;;12.32;;
54177;SDS011;40085;53.004;6.770;2023-06-22T05:55:01;18.77;;;11.63;;
54177;SDS011;40085;53.004;6.770;2023-06-22T05:57:27;18.95;;;12.38;;
54177;SDS011;40085;53.004;6.770;2023-06-22T05:59:53;17.33;;;11.75;;
54177;SDS011;40085;53.004;6.770;2023-06-22T06:02:19;16.52;;;12.20;;
54177;SDS011;40085;53.004;6.770;2023-06-22T06:04:44;23.70;;;12.60;;
54177;SDS011;40085;53.004;6.770;2023-06-22T06:07:10;17.25;;;11.68;;
54177;SDS011;40085;53.004;6.770;2023-06-22T06:09:36;14.90;;;10.77;;
54177;SDS011;40085;53.004;6.770;2023-06-22T06:12:01;15.98;;;9.43;;
54177;SDS011;40085;53.004;6.770;2023-06-22T06:14:28;15.30;;;10.40;;
54177;SDS011;40085;53.004;6.770;2023-06-22T06:16:53;17.58;;;11.05;;
54177;SDS011;40085;53.004;6.770;2023-06-22T06:19:19;13.73;;;9.48;;
54177;SDS011;40085;53.004;6.770;2023-06-22T06:21:45;13.55;;;9.55;;
54177;SDS011;40085;53.004;6.770;2023-06-22T06:24:11;13.25;;;8.95;;
54177;SDS011;40085;53.004;6.770;2023-06-22T06:26:37;16.40;;;10.02;;
54177;SDS011;40085;53.004;6.770;2023-06-22T06:29:02;18.88;;;9.90;;
54177;SDS011;40085;53.004;6.770;2023-06-22T06:31:28;11.70;;;8.65;;
54177;SDS011;40085;53.004;6.770;2023-06-22T06:33:54;10.70;;;7.30;;
54177;SDS011;40085;53.004;6.770;2023-06-22T06:36:20;9.13;;;7.15;;
54177;SDS011;40085;53.004;6.770;2023-06-22T06:38:46;12.88;;;6.93;;
54177;SDS011;40085;53.004;6.770;2023-06-22T06:41:15;10.52;;;7.13;;
54177;SDS011;40085;53.004;6.770;2023-06-22T06:43:41;10.50;;;6.18;;
54177;SDS011;40085;53.004;6.770;2023-06-22T06:46:10;10.65;;;6.38;;
54177;SDS011;40085;53.004;6.770;2023-06-22T06:48:36;11.10;;;6.22;;
54177;SDS011;40085;53.004;6.770;2023-06-22T06:51:01;10.13;;;6.60;;
54177;SDS011;40085;53.004;6.770;2023-06-22T06:53:27;9.07;;;6.57;;
54177;SDS011;40085;53.004;6.770;2023-06-22T06:55:53;10.93;;;6.43;;
54177;SDS011;40085;53.004;6.770;2023-06-22T06:58:19;6.57;;;5.07;;
54177;SDS011;40085;53.004;6.770;2023-06-22T07:00:45;8.88;;;5.22;;
54177;SDS011;40085;53.004;6.770;2023-06-22T07:03:10;7.25;;;5.40;;
54177;SDS011;40085;53.004;6.770;2023-06-22T07:05:36;8.05;;;5.55;;
54177;SDS011;40085;53.004;6.770;2023-06-22T07:08:02;6.43;;;4.65;;
54177;SDS011;40085;53.004;6.770;2023-06-22T07:10:28;8.63;;;5.18;;
54177;SDS011;40085;53.004;6.770;2023-06-22T07:12:54;6.90;;;4.82;;
54177;SDS011;40085;53.004;6.770;2023-06-22T07:15:20;6.78;;;4.85;;
54177;SDS011;40085;53.004;6.770;2023-06-22T07:17:45;6.88;;;4.72;;
54177;SDS011;40085;53.004;6.770;2023-06-22T07:20:11;9.20;;;4.85;;
54177;SDS011;40085;53.004;6.770;2023-06-22T07:22:41;10.10;;;4.38;;
54177;SDS011;40085;53.004;6.770;2023-06-22T07:25:08;5.28;;;3.63;;
54177;SDS011;40085;53.004;6.770;2023-06-22T07:28:16;9.27;;;4.30;;
54177;SDS011;40085;53.004;6.770;2023-06-22T07:30:27;8.40;;;4.30;;
54177;SDS011;40085;53.004;6.770;2023-06-22T07:32:53;7.43;;;4.55;;
54177;SDS011;40085;53.004;6.770;2023-06-22T07:35:19;5.82;;;3.85;;
54177;SDS011;40085;53.004;6.770;2023-06-22T07:37:45;10.05;;;4.20;;
54177;SDS011;40085;53.004;6.770;2023-06-22T07:40:11;5.60;;;3.95;;
54177;SDS011;40085;53.004;6.770;2023-06-22T07:42:37;12.25;;;4.03;;
54177;SDS011;40085;53.004;6.770;2023-06-22T07:45:03;6.78;;;3.55;;
54177;SDS011;40085;53.004;6.770;2023-06-22T07:47:30;7.13;;;4.03;;
54177;SDS011;40085;53.004;6.770;2023-06-22T07:50:00;7.68;;;3.90;;
54177;SDS011;40085;53.004;6.770;2023-06-22T07:52:26;6.13;;;3.55;;
54177;SDS011;40085;53.004;6.770;2023-06-22T07:54:52;7.28;;;3.63;;
54177;SDS011;40085;53.004;6.770;2023-06-22T07:57:18;5.32;;;3.35;;
54177;SDS011;40085;53.004;6.770;2023-06-22T07:59:44;8.45;;;4.13;;
54177;SDS011;40085;53.004;6.770;2023-06-22T08:02:10;5.63;;;3.40;;
54177;SDS011;40085;53.004;6.770;2023-06-22T08:04:36;4.80;;;3.40;;
54177;SDS011;40085;53.004;6.770;2023-06-22T08:07:02;5.85;;;3.40;;
54177;SDS011;40085;53.004;6.770;2023-06-22T08:09:29;6.18;;;3.72;;
54177;SDS011;40085;53.004;6.770;2023-06-22T08:11:56;6.32;;;3.58;;
54177;SDS011;40085;53.004;6.770;2023-06-22T08:14:23;8.82;;;3.63;;
54177;SDS011;40085;53.004;6.770;2023-06-22T08:16:50;5.85;;;3.80;;
54177;SDS011;40085;53.004;6.770;2023-06-22T08:19:15;4.18;;;2.97;;
54177;SDS011;40085;53.004;6.770;2023-06-22T08:21:42;5.75;;;3.60;;
54177;SDS011;40085;53.004;6.770;2023-06-22T08:24:08;7.20;;;3.65;;
54177;SDS011;40085;53.004;6.770;2023-06-22T08:26:33;6.13;;;3.58;;
54177;SDS011;40085;53.004;6.770;2023-06-22T08:29:02;5.00;;;3.13;;
54177;SDS011;40085;53.004;6.770;2023-06-22T08:31:28;6.22;;;3.60;;
54177;SDS011;40085;53.004;6.770;2023-06-22T08:33:55;9.27;;;4.47;;
54177;SDS011;40085;53.004;6.770;2023-06-22T08:36:21;6.15;;;3.58;;
54177;SDS011;40085;53.004;6.770;2023-06-22T08:38:47;4.03;;;2.80;;
54177;SDS011;40085;53.004;6.770;2023-06-22T08:41:16;6.80;;;3.53;;
54177;SDS011;40085;53.004;6.770;2023-06-22T08:43:42;7.30;;;4.13;;
54177;SDS011;40085;53.004;6.770;2023-06-22T08:46:09;6.00;;;4.18;;
54177;SDS011;40085;53.004;6.770;2023-06-22T08:48:35;7.43;;;4.13;;
54177;SDS011;40085;53.004;6.770;2023-06-22T08:51:01;7.18;;;4.45;;
54177;SDS011;40085;53.004;6.770;2023-06-22T08:53:28;7.20;;;4.03;;
54177;SDS011;40085;53.004;6.770;2023-06-22T08:55:54;6.88;;;4.32;;
54177;SDS011;40085;53.004;6.770;2023-06-22T08:58:20;6.07;;;3.33;;
54177;SDS011;40085;53.004;6.770;2023-06-22T09:00:46;5.57;;;3.80;;
54177;SDS011;40085;53.004;6.770;2023-06-22T09:03:12;5.22;;;3.53;;
54177;SDS011;40085;53.004;6.770;2023-06-22T09:05:38;6.85;;;4.07;;
54177;SDS011;40085;53.004;6.770;2023-06-22T09:08:04;5.30;;;3.72;;
54177;SDS011;40085;53.004;6.770;2023-06-22T09:10:30;6.40;;;4.00;;
54177;SDS011;40085;53.004;6.770;2023-06-22T09:12:57;5.50;;;3.65;;
54177;SDS011;40085;53.004;6.770;2023-06-22T09:15:23;7.60;;;4.20;;
54177;SDS011;40085;53.004;6.770;2023-06-22T09:17:49;10.35;;;4.47;;
54177;SDS011;40085;53.004;6.770;2023-06-22T09:20:15;5.75;;;3.78;;
54177;SDS011;40085;53.004;6.770;2023-06-22T09:22:41;5.57;;;3.85;;
54177;SDS011;40085;53.004;6.770;2023-06-22T09:25:07;6.82;;;4.00;;
54177;SDS011;40085;53.004;6.770;2023-06-22T09:27:34;7.22;;;4.82;;
54177;SDS011;40085;53.004;6.770;2023-06-22T09:29:59;8.18;;;3.75;;
54177;SDS011;40085;53.004;6.770;2023-06-22T09:32:26;6.10;;;4.28;;
54177;SDS011;40085;53.004;6.770;2023-06-22T09:34:52;6.15;;;3.95;;
54177;SDS011;40085;53.004;6.770;2023-06-22T09:37:18;5.10;;;3.08;;
54177;SDS011;40085;53.004;6.770;2023-06-22T09:39:44;8.43;;;4.57;;
54177;SDS011;40085;53.004;6.770;2023-06-22T09:42:10;6.18;;;3.88;;
54177;SDS011;40085;53.004;6.770;2023-06-22T09:44:36;7.30;;;4.25;;
54177;SDS011;40085;53.004;6.770;2023-06-22T09:47:02;5.18;;;3.42;;
54177;SDS011;40085;53.004;6.770;2023-06-22T09:49:27;10.80;;;3.97;;
54177;SDS011;40085;53.004;6.770;2023-06-22T09:51:53;5.05;;;3.70;;
54177;SDS011;40085;53.004;6.770;2023-06-22T09:54:19;6.07;;;3.63;;
54177;SDS011;40085;53.004;6.770;2023-06-22T09:56:44;5.50;;;3.70;;
54177;SDS011;40085;53.004;6.770;2023-06-22T09:59:10;5.68;;;3.70;;
54177;SDS011;40085;53.004;6.770;2023-06-22T10:01:35;8.10;;;3.00;;
54177;SDS011;40085;53.004;6.770;2023-06-22T10:04:02;6.05;;;3.60;;
54177;SDS011;40085;53.004;6.770;2023-06-22T10:06:28;6.65;;;4.28;;
54177;SDS011;40085;53.004;6.770;2023-06-22T10:08:54;7.82;;;3.85;;
54177;SDS011;40085;53.004;6.770;2023-06-22T10:11:20;6.28;;;4.43;;
54177;SDS011;40085;53.004;6.770;2023-06-22T10:13:52;6.55;;;3.55;;
54177;SDS011;40085;53.004;6.770;2023-06-22T10:16:18;6.07;;;3.55;;
54177;SDS011;40085;53.004;6.770;2023-06-22T10:18:44;8.55;;;3.83;;
54177;SDS011;40085;53.004;6.770;2023-06-22T10:21:10;5.45;;;2.88;;
54177;SDS011;40085;53.004;6.770;2023-06-22T10:23:36;6.22;;;3.97;;
54177;SDS011;40085;53.004;6.770;2023-06-22T10:26:02;6.72;;;3.55;;
54177;SDS011;40085;53.004;6.770;2023-06-22T10:28:28;4.80;;;3.53;;
54177;SDS011;40085;53.004;6.770;2023-06-22T10:30:54;5.88;;;3.33;;
54177;SDS011;40085;53.004;6.770;2023-06-22T10:33:19;6.60;;;4.03;;
54177;SDS011;40085;53.004;6.770;2023-06-22T10:35:45;5.20;;;3.00;;
54177;SDS011;40085;53.004;6.770;2023-06-22T10:38:11;7.72;;;3.83;;
54177;SDS011;40085;53.004;6.770;2023-06-22T10:40:36;6.93;;;3.70;;
54177;SDS011;40085;53.004;6.770;2023-06-22T10:43:04;6.97;;;4.15;;
54177;SDS011;40085;53.004;6.770;2023-06-22T10:45:30;5.57;;;3.42;;
54177;SDS011;40085;53.004;6.770;2023-06-22T10:47:55;5.72;;;3.72;;
54177;SDS011;40085;53.004;6.770;2023-06-22T10:50:21;5.10;;;2.92;;
54177;SDS011;40085;53.004;6.770;2023-06-22T10:52:49;4.93;;;3.58;;
54177;SDS011;40085;53.004;6.770;2023-06-22T10:55:14;5.88;;;3.42;;
54177;SDS011;40085;53.004;6.770;2023-06-22T10:57:40;5.63;;;3.35;;
54177;SDS011;40085;53.004;6.770;2023-06-22T11:00:08;5.55;;;2.45;;
54177;SDS011;40085;53.004;6.770;2023-06-22T11:02:34;6.82;;;3.42;;
54177;SDS011;40085;53.004;6.770;2023-06-22T11:04:59;5.40;;;3.45;;
54177;SDS011;40085;53.004;6.770;2023-06-22T11:07:25;6.55;;;3.35;;
54177;SDS011;40085;53.004;6.770;2023-06-22T11:09:53;4.90;;;3.22;;
54177;SDS011;40085;53.004;6.770;2023-06-22T11:12:19;5.82;;;3.63;;
54177;SDS011;40085;53.004;6.770;2023-06-22T11:14:45;5.45;;;3.08;;
54177;SDS011;40085;53.004;6.770;2023-06-22T11:17:10;7.15;;;3.67;;
54177;SDS011;40085;53.004;6.770;2023-06-22T11:19:36;6.50;;;3.53;;
54177;SDS011;40085;53.004;6.770;2023-06-22T11:22:02;4.97;;;2.95;;
54177;SDS011;40085;53.004;6.770;2023-06-22T11:24:27;7.13;;;3.58;;
54177;SDS011;40085;53.004;6.770;2023-06-22T11:26:53;5.88;;;3.17;;
54177;SDS011;40085;53.004;6.770;2023-06-22T11:29:18;5.30;;;2.90;;
54177;SDS011;40085;53.004;6.770;2023-06-22T11:31:44;5.07;;;3.00;;
54177;SDS011;40085;53.004;6.770;2023-06-22T11:34:10;5.13;;;3.03;;
54177;SDS011;40085;53.004;6.770;2023-06-22T11:36:36;5.30;;;3.05;;
54177;SDS011;40085;53.004;6.770;2023-06-22T11:39:01;6.88;;;3.30;;
54177;SDS011;40085;53.004;6.770;2023-06-22T11:41:27;5.38;;;2.90;;
54177;SDS011;40085;53.004;6.770;2023-06-22T11:43:53;5.55;;;3.15;;
54177;SDS011;40085;53.004;6.770;2023-06-22T11:46:18;4.93;;;2.83;;
54177;SDS011;40085;53.004;6.770;2023-06-22T11:48:44;5.60;;;3.60;;
54177;SDS011;40085;53.004;6.770;2023-06-22T11:51:10;6.80;;;3.40;;
54177;SDS011;40085;53.004;6.770;2023-06-22T11:53:36;3.53;;;2.70;;
54177;SDS011;40085;53.004;6.770;2023-06-22T11:56:01;6.32;;;3.15;;
54177;SDS011;40085;53.004;6.770;2023-06-22T11:58:27;4.78;;;2.72;;
54177;SDS011;40085;53.004;6.770;2023-06-22T12:00:53;7.72;;;3.20;;
54177;SDS011;40085;53.004;6.770;2023-06-22T12:03:19;4.90;;;3.22;;
54177;SDS011;40085;53.004;6.770;2023-06-22T12:05:46;4.05;;;2.95;;
54177;SDS011;40085;53.004;6.770;2023-06-22T12:08:12;5.30;;;3.05;;
54177;SDS011;40085;53.004;6.770;2023-06-22T12:10:38;5.20;;;2.85;;
54177;SDS011;40085;53.004;6.770;2023-06-22T12:13:04;5.70;;;3.45;;
54177;SDS011;40085;53.004;6.770;2023-06-22T12:15:30;4.80;;;2.85;;
54177;SDS011;40085;53.004;6.770;2023-06-22T12:17:56;3.67;;;2.67;;
54177;SDS011;40085;53.004;6.770;2023-06-22T12:20:21;7.63;;;2.83;;
54177;SDS011;40085;53.004;6.770;2023-06-22T12:22:48;4.85;;;3.08;;
54177;SDS011;40085;53.004;6.770;2023-06-22T12:25:16;9.68;;;3.85;;
54177;SDS011;40085;53.004;6.770;2023-06-22T12:27:42;5.20;;;3.30;;
54177;SDS011;40085;53.004;6.770;2023-06-22T12:30:08;4.05;;;2.88;;
54177;SDS011;40085;53.004;6.770;2023-06-22T12:32:34;4.55;;;2.72;;
54177;SDS011;40085;53.004;6.770;2023-06-22T12:34:59;5.03;;;3.55;;
54177;SDS011;40085;53.004;6.770;2023-06-22T12:37:25;6.15;;;3.58;;
54177;SDS011;40085;53.004;6.770;2023-06-22T12:39:51;5.40;;;3.30;;
54177;SDS011;40085;53.004;6.770;2023-06-22T12:42:16;5.88;;;3.10;;
54177;SDS011;40085;53.004;6.770;2023-06-22T12:44:42;6.03;;;3.40;;
54177;SDS011;40085;53.004;6.770;2023-06-22T12:47:08;5.05;;;3.63;;
54177;SDS011;40085;53.004;6.770;2023-06-22T12:49:34;6.25;;;3.28;;
54177;SDS011;40085;53.004;6.770;2023-06-22T12:52:00;3.65;;;2.72;;
54177;SDS011;40085;53.004;6.770;2023-06-22T12:54:26;5.22;;;3.03;;
54177;SDS011;40085;53.004;6.770;2023-06-22T12:56:54;4.85;;;3.15;;
54177;SDS011;40085;53.004;6.770;2023-06-22T12:59:20;6.15;;;3.33;;
54177;SDS011;40085;53.004;6.770;2023-06-22T13:01:45;5.50;;;3.00;;
54177;SDS011;40085;53.004;6.770;2023-06-22T13:04:11;3.55;;;2.45;;
54177;SDS011;40085;53.004;6.770;2023-06-22T13:06:40;6.32;;;2.92;;
54177;SDS011;40085;53.004;6.770;2023-06-22T13:09:12;3.78;;;2.75;;
54177;SDS011;40085;53.004;6.770;2023-06-22T13:11:38;5.70;;;3.13;;
54177;SDS011;40085;53.004;6.770;2023-06-22T13:14:04;4.00;;;2.50;;
54177;SDS011;40085;53.004;6.770;2023-06-22T13:16:29;5.28;;;3.00;;
54177;SDS011;40085;53.004;6.770;2023-06-22T13:18:55;5.25;;;2.60;;
54177;SDS011;40085;53.004;6.770;2023-06-22T13:21:21;3.28;;;2.47;;
54177;SDS011;40085;53.004;6.770;2023-06-22T13:23:46;7.20;;;3.75;;
54177;SDS011;40085;53.004;6.770;2023-06-22T13:26:12;3.80;;;2.40;;
54177;SDS011;40085;53.004;6.770;2023-06-22T13:28:37;5.18;;;2.90;;
54177;SDS011;40085;53.004;6.770;2023-06-22T13:31:03;4.57;;;2.72;;
54177;SDS011;40085;53.004;6.770;2023-06-22T13:33:29;8.07;;;3.55;;
54177;SDS011;40085;53.004;6.770;2023-06-22T13:35:54;5.43;;;3.50;;
54177;SDS011;40085;53.004;6.770;2023-06-22T13:38:20;4.72;;;2.50;;
54177;SDS011;40085;53.004;6.770;2023-06-22T13:40:46;6.95;;;2.60;;
54177;SDS011;40085;53.004;6.770;2023-06-22T13:43:12;5.88;;;3.38;;
54177;SDS011;40085;53.004;6.770;2023-06-22T13:45:38;4.13;;;2.65;;
54177;SDS011;40085;53.004;6.770;2023-06-22T13:48:04;3.45;;;2.55;;
54177;SDS011;40085;53.004;6.770;2023-06-22T13:50:29;3.53;;;2.25;;
54177;SDS011;40085;53.004;6.770;2023-06-22T13:52:55;3.28;;;2.50;;
54177;SDS011;40085;53.004;6.770;2023-06-22T13:55:21;6.20;;;2.60;;
54177;SDS011;40085;53.004;6.770;2023-06-22T13:57:48;5.43;;;2.80;;
54177;SDS011;40085;53.004;6.770;2023-06-22T14:00:14;3.45;;;2.50;;
54177;SDS011;40085;53.004;6.770;2023-06-22T14:02:40;3.22;;;2.38;;
54177;SDS011;40085;53.004;6.770;2023-06-22T14:05:06;6.32;;;2.92;;
54177;SDS011;40085;53.004;6.770;2023-06-22T14:07:32;3.97;;;2.50;;
54177;SDS011;40085;53.004;6.770;2023-06-22T14:09:59;4.47;;;2.40;;
54177;SDS011;40085;53.004;6.770;2023-06-22T14:12:25;3.17;;;2.20;;
54177;SDS011;40085;53.004;6.770;2023-06-22T14:14:51;3.72;;;2.50;;
54177;SDS011;40085;53.004;6.770;2023-06-22T14:17:17;4.57;;;2.65;;
54177;SDS011;40085;53.004;6.770;2023-06-22T14:19:42;8.77;;;2.80;;
54177;SDS011;40085;53.004;6.770;2023-06-22T14:22:08;4.05;;;2.42;;
54177;SDS011;40085;53.004;6.770;2023-06-22T14:24:34;4.65;;;2.92;;
54177;SDS011;40085;53.004;6.770;2023-06-22T14:26:59;4.05;;;2.63;;
54177;SDS011;40085;53.004;6.770;2023-06-22T14:29:27;5.50;;;3.05;;
54177;SDS011;40085;53.004;6.770;2023-06-22T14:31:53;4.95;;;3.35;;
54177;SDS011;40085;53.004;6.770;2023-06-22T14:34:18;7.28;;;2.63;;
54177;SDS011;40085;53.004;6.770;2023-06-22T14:36:44;7.10;;;3.67;;